Pagina principale
METAR-TAF:

METAR-TAF

Aeroporti :

Roma-Fiumicino, Italia

Aeroporto di Roma-Fiumicino

latitudine: 41-48N, longitudine: 012-14E, altezza: 2 m

Osservazione

Il bollettino è stato emesso 42 minuti fa, alle 00:20 UTC
Vento 17 kt da ovest
Temperature 14°C
Umidità 82%
Pressione 1009 hPa
Visibilità: 9000 m

METAR: LIRF 170020Z 27017KT 9000 NSC 14/11 Q1009 NOSIG

Ora: 02:02 (01:02 UTC)

Previsione

Il bollettino è stato emesso 2 ore e 2 minuti fa, alle 23:00 UTC
Previsione valida dal 17 alle 00 UTC al 18 alle 06 UTC
Vento 15 kt da ovest
Visibilità 10 km o più
Nubi sparse ad un'altezza di 2000 ft
Evoluzione graduale
dal 17 alle 05 UTC al 17 alle 08 UTC
Vento 25 kt da ovest/nord-ovest con raffiche fino a 35 kt
Evoluzione graduale
dal 17 alle 20 UTC al 17 alle 23 UTC
Vento 10 kt da nord/nord-est

TAF: LIRF 162300Z 1700/1806 27015KT 9999 SCT020 BECMG 1705/1708 29025G35KT BECMG 1720/1723 02010KT

Osservazioni e previsioni meteorologiche di più di 4000 aeroporti (messaggi METAR e TAF).

Le stazioni disponibili sono rappresentate dai dischi gialli e rossi sulla carta.

Puntare il mouse per vedere il nome della stazione.

Clicca sopra per visualizzare le osservazioni e previsioni meteorologiche.

Per cambiare la mappa : fare clic sui pulsanti verdi con una croce nera per ingrandire, il pulsante verde con un trattino per diminuire, o sulla freccia verde per le mappe adiacenti.


METAR-TAF: